Time;durP1;ratioP1;P1;durP2;ratioP2;P2;SDS_P1;SDS_P2;PMS_P1;PMS_P2;Temp;Humidity;BMP_temperature;BMP_pressure;BME280_temperature;BME280_humidity;BME280_pressure;Samples;Min_cycle;Max_cycle;Signal;HPM_P1;HPM_P2
2022/12/27 00:01:59;;;;;;;12.60;4.10;;;;;;;1.70;100.00;101153.16;5001466;28;20038;-41
2022/12/27 00:04:26;;;;;;;10.02;3.25;;;;;;;1.71;100.00;101155.63;5010260;28;20049;-42
2022/12/27 00:06:53;;;;;;;10.70;5.82;;;;;;;1.73;100.00;101156.16;5011842;28;20515;-41
2022/12/27 00:09:27;;;;;;;9.88;4.55;;;;;;;1.75;100.00;101153.16;5010018;28;20042;-42
2022/12/27 00:11:54;;;;;;;8.30;3.65;;;;;;;1.74;100.00;101146.91;4997980;28;20404;-41
2022/12/27 00:14:26;;;;;;;6.78;3.20;;;;;;;1.76;100.00;101147.44;5010572;28;20061;-40
2022/12/27 00:16:53;;;;;;;8.30;3.38;;;;;;;1.77;100.00;101142.78;5008842;28;20467;-41
2022/12/27 00:19:19;;;;;;;9.60;2.97;;;;;;;1.78;100.00;101150.69;5010400;28;20057;-42
2022/12/27 00:21:46;;;;;;;11.25;2.78;;;;;;;1.79;100.00;101146.06;5011161;28;20050;-42
2022/12/27 00:24:13;;;;;;;6.47;3.22;;;;;;;1.80;100.00;101147.69;5008932;28;20052;-41
2022/12/27 00:26:40;;;;;;;6.65;2.72;;;;;;;1.82;100.00;101149.06;5009631;28;20538;-42
2022/12/27 00:29:08;;;;;;;4.82;2.70;;;;;;;1.85;100.00;101155.88;5010125;28;20084;-40
2022/12/27 00:31:35;;;;;;;6.68;2.70;;;;;;;1.88;100.00;101147.09;5010258;28;20056;-42
2022/12/27 00:34:05;;;;;;;8.20;3.30;;;;;;;1.88;100.00;101152.56;5011413;28;20045;-40
2022/12/27 00:36:32;;;;;;;5.95;3.03;;;;;;;1.92;100.00;101158.31;5024417;28;20053;-41
2022/12/27 00:38:59;;;;;;;9.55;3.78;;;;;;;1.90;100.00;101146.84;5029919;28;20056;-45
2022/12/27 00:41:26;;;;;;;6.72;2.72;;;;;;;1.91;100.00;101154.75;5030571;28;20095;-41
2022/12/27 00:43:53;;;;;;;11.52;3.63;;;;;;;1.90;100.00;101146.84;5027900;28;20044;-43
2022/12/27 00:46:20;;;;;;;7.80;3.70;;;;;;;1.88;100.00;101140.84;5030705;28;20071;-42
2022/12/27 00:48:47;;;;;;;16.15;3.92;;;;;;;1.87;100.00;101139.22;5029538;28;20179;-41
2022/12/27 00:51:17;;;;;;;7.38;3.10;;;;;;;1.81;100.00;101136.50;5031237;28;20048;-43
2022/12/27 00:53:44;;;;;;;5.15;3.40;;;;;;;1.80;100.00;101143.03;5030059;28;20041;-41
2022/12/27 00:56:16;;;;;;;10.98;4.03;;;;;;;1.78;100.00;101128.84;5033531;28;20049;-42
2022/12/27 00:58:42;;;;;;;7.68;3.70;;;;;;;1.78;100.00;101128.03;5029221;28;20045;-43
2022/12/27 01:04:27;;;;;;;11.20;3.25;;;;;;;1.76;100.00;101111.94;5022661;28;20061;-44
2022/12/27 01:06:54;;;;;;;9.55;3.70;;;;;;;1.76;100.00;101117.41;5029906;28;20047;-45
2022/12/27 01:09:21;;;;;;;7.13;3.95;;;;;;;1.74;100.00;101111.41;5031154;28;20045;-46
2022/12/27 01:11:47;;;;;;;7.30;3.10;;;;;;;1.76;100.00;101103.75;5033053;28;20037;-42
2022/12/27 01:14:14;;;;;;;8.95;3.40;;;;;;;1.78;100.00;101101.56;5034043;28;20037;-41
2022/12/27 01:16:41;;;;;;;10.98;3.38;;;;;;;1.79;100.00;101102.38;5033201;28;20053;-41
2022/12/27 01:19:08;;;;;;;8.55;3.10;;;;;;;1.81;100.00;101103.75;5026869;28;20080;-44
2022/12/27 01:21:34;;;;;;;4.13;2.97;;;;;;;1.81;100.00;101092.81;5031918;28;20042;-42
2022/12/27 01:24:01;;;;;;;7.82;3.42;;;;;;;1.84;100.00;101092.25;5033309;28;20095;-43
2022/12/27 01:26:28;;;;;;;9.00;3.13;;;;;;;1.83;100.00;101087.06;5031951;28;20055;-42
2022/12/27 01:28:55;;;;;;;8.65;3.63;;;;;;;1.84;100.00;101095.00;5032547;28;20049;-41
2022/12/27 01:31:24;;;;;;;7.35;3.08;;;;;;;1.84;100.00;101089.53;5032677;28;20372;-41
2022/12/27 01:33:59;;;;;;;5.85;3.20;;;;;;;1.87;100.00;101081.88;5033606;28;20069;-41
2022/12/27 01:36:28;;;;;;;8.50;4.32;;;;;;;1.85;100.00;101093.88;5032248;28;20075;-41
2022/12/27 01:38:56;;;;;;;7.32;3.40;;;;;;;1.87;100.00;101087.34;5031657;28;20056;-41
2022/12/27 01:47:22;;;;;;;7.40;3.03;;;;;;;1.90;100.00;101075.88;5033602;28;20370;-41
2022/12/27 01:50:13;;;;;;;7.68;3.45;;;;;;;1.90;100.00;101086.78;5033323;28;20045;-41
2022/12/27 01:53:40;;;;;;;7.90;2.95;;;;;;;1.90;100.00;101081.31;5025335;28;20092;-42
2022/12/27 01:56:12;;;;;;;7.63;3.63;;;;;;;1.89;100.00;101076.94;5023829;28;20046;-42
2022/12/27 01:59:01;;;;;;;8.02;3.22;;;;;;;1.89;100.00;101066.03;5012296;28;20046;-41
2022/12/27 02:01:36;;;;;;;7.20;3.60;;;;;;;1.91;100.00;101063.84;5026590;28;20042;-41
2022/12/27 02:04:05;;;;;;;8.70;3.15;;;;;;;1.93;100.00;101058.94;5033259;28;20051;-41
2022/12/27 02:06:50;;;;;;;7.65;2.97;;;;;;;1.94;100.00;101063.28;5031860;28;20057;-41
2022/12/27 02:09:25;;;;;;;10.73;3.65;;;;;;;1.95;100.00;101051.25;5032365;28;20041;-41
2022/12/27 02:12:05;;;;;;;7.15;2.70;;;;;;;1.97;100.00;101044.44;5031685;28;20049;-41
2022/12/27 02:14:39;;;;;;;7.38;2.53;;;;;;;1.99;100.00;101031.31;5012150;28;20480;-41
2022/12/27 02:17:10;;;;;;;5.90;3.08;;;;;;;2.01;100.00;101031.03;5013647;28;20121;-41
2022/12/27 02:19:54;;;;;;;13.75;3.10;;;;;;;2.02;100.00;101013.53;5011630;28;20149;-41
2022/12/27 02:26:22;;;;;;;14.77;4.07;;;;;;;2.04;100.00;101017.63;5012090;28;20034;-41
2022/12/27 02:28:58;;;;;;;9.73;3.20;;;;;;;2.03;100.00;101024.19;5012523;28;20627;-41
2022/12/27 02:31:55;;;;;;;6.40;3.75;;;;;;;2.05;100.00;101023.91;5011170;28;20053;-42
2022/12/27 02:34:28;;;;;;;12.68;3.60;;;;;;;2.04;100.00;101022.28;5013550;28;20398;-41
2022/12/27 02:37:03;;;;;;;7.25;4.35;;;;;;;2.04;100.00;101014.09;5010469;28;20562;-42
2022/12/27 02:39:34;;;;;;;6.65;3.40;;;;;;;2.06;100.00;101020.91;5010621;28;20141;-41
2022/12/27 02:53:36;;;;;;;14.02;6.07;;;;;;;2.11;100.00;100993.56;5011694;28;20132;-41
2022/12/27 02:59:18;;;;;;;18.15;5.57;;;;;;;2.17;100.00;100994.34;5012143;28;20144;-41
2022/12/27 03:15:53;;;;;;;10.93;3.50;;;;;;;2.26;100.00;100976.25;5022836;28;20468;-41
2022/12/27 03:18:06;;;;;;;7.50;2.90;;;;;;;2.34;100.00;100972.91;5013619;28;20501;-40
2022/12/27 03:26:08;;;;;;;3.38;2.05;;;;;;;2.41;100.00;100963.28;5011114;28;20044;-40
2022/12/27 03:34:38;;;;;;;2.47;1.17;;;;;;;2.53;100.00;100938.31;5010705;28;20467;-41
2022/12/27 03:40:10;;;;;;;8.02;1.58;;;;;;;2.61;100.00;100934.97;5009799;28;20128;-42
2022/12/27 03:43:10;;;;;;;5.75;1.10;;;;;;;2.66;100.00;100923.97;5018955;28;20101;-41
2022/12/27 03:49:27;;;;;;;3.40;0.55;;;;;;;2.78;100.00;100897.06;5028388;28;20041;-41
2022/12/27 03:52:19;;;;;;;3.03;0.43;;;;;;;2.85;100.00;100897.53;5028856;28;20060;-41
2022/12/27 03:54:48;;;;;;;3.58;1.38;;;;;;;2.90;100.00;100894.75;5030606;28;20044;-41
2022/12/27 03:57:18;;;;;;;2.50;0.70;;;;;;;2.96;100.00;100893.59;5032831;28;20045;-41
2022/12/27 03:59:45;;;;;;;1.88;0.45;;;;;;;3.00;100.00;100891.91;5028554;28;20069;-41
2022/12/27 04:02:18;;;;;;;7.38;1.73;;;;;;;3.04;100.00;100890.19;5032317;28;20053;-41
2022/12/27 04:04:45;;;;;;;1.05;0.50;;;;;;;3.08;100.00;100874.03;5010589;28;20045;-41
2022/12/27 04:07:14;;;;;;;0.50;0.50;;;;;;;3.12;100.00;100868.78;5004781;28;20061;-41
2022/12/27 04:35:25;;;;;;;4.88;0.65;;;;;;;3.59;100.00;100803.00;4990444;28;20053;-41
2022/12/27 04:37:52;;;;;;;10.80;1.70;;;;;;;3.63;100.00;100809.50;4991487;28;20058;-41
2022/12/27 04:55:24;;;;;;;4.00;0.70;;;;;;;3.83;100.00;100765.38;4994383;28;20135;-41
2022/12/27 04:57:52;;;;;;;3.33;0.60;;;;;;;3.85;100.00;100751.38;4993771;28;20038;-41
2022/12/27 05:03:11;;;;;;;4.95;1.23;;;;;;;3.81;100.00;100740.22;4994210;28;20065;-41
2022/12/27 05:05:39;;;;;;;3.42;0.93;;;;;;;3.80;100.00;100733.09;4994383;28;20043;-41
2022/12/27 05:14:00;;;;;;;6.10;1.05;;;;;;;3.76;100.00;100723.84;4994121;28;20404;-41
2022/12/27 05:16:35;;;;;;;4.85;1.17;;;;;;;3.75;100.00;100710.47;4994173;28;20053;-41
2022/12/27 05:19:03;;;;;;;5.93;1.02;;;;;;;3.74;100.00;100706.91;4993845;28;20046;-41
2022/12/27 05:21:30;;;;;;;1.48;0.90;;;;;;;3.73;100.00;100693.53;4994261;28;20039;-41
2022/12/27 05:26:41;;;;;;;1.23;0.80;;;;;;;3.71;100.00;100680.13;4993271;28;20052;-41
2022/12/27 05:29:08;;;;;;;0.85;0.70;;;;;;;3.72;100.00;100679.03;4994524;28;20427;-43
2022/12/27 05:31:35;;;;;;;8.15;0.77;;;;;;;3.73;100.00;100668.91;5005449;28;20057;-41
2022/12/27 05:34:03;;;;;;;2.15;0.60;;;;;;;3.73;100.00;100656.03;4995333;28;20054;-41
2022/12/27 05:36:30;;;;;;;6.47;2.45;;;;;;;3.75;100.00;100653.78;4975360;28;20061;-41
2022/12/27 05:38:58;;;;;;;4.65;0.70;;;;;;;3.77;100.00;100645.25;4993461;28;20546;-41
2022/12/27 05:41:25;;;;;;;3.33;0.80;;;;;;;3.75;100.00;100626.41;4995055;28;20468;-41
2022/12/27 05:43:51;;;;;;;3.97;0.77;;;;;;;3.75;100.00;100620.94;4993847;28;20050;-41
2022/12/27 05:46:20;;;;;;;6.47;2.03;;;;;;;3.77;100.00;100610.50;4993245;28;20054;-41
2022/12/27 05:48:47;;;;;;;2.92;0.98;;;;;;;3.80;100.00;100603.59;4993014;28;20062;-41
2022/12/27 05:51:17;;;;;;;2.17;0.60;;;;;;;3.83;100.00;100606.53;4993590;28;20129;-41
2022/12/27 05:53:45;;;;;;;4.07;1.00;;;;;;;3.83;100.00;100600.25;4992475;28;20591;-41
2022/12/27 05:56:17;;;;;;;1.92;0.63;;;;;;;3.85;100.00;100606.22;4993304;28;20052;-41
2022/12/27 05:58:45;;;;;;;4.65;1.52;;;;;;;3.88;100.00;100591.94;5015428;28;20141;-41
2022/12/27 06:01:30;;;;;;;4.50;1.30;;;;;;;3.90;100.00;100571.34;5013337;28;20503;-41
2022/12/27 06:04:30;;;;;;;4.70;1.35;;;;;;;3.91;100.00;100559.28;5004635;28;20050;-41
2022/12/27 06:06:58;;;;;;;2.83;1.05;;;;;;;3.93;100.00;100554.31;5011095;28;20061;-41
2022/12/27 06:09:45;;;;;;;11.30;2.42;;;;;;;3.96;100.00;100545.47;5011063;28;20042;-41
2022/12/27 06:12:11;;;;;;;2.72;1.13;;;;;;;4.00;100.00;100540.19;5012762;28;20226;-41
2022/12/27 06:14:40;;;;;;;2.53;1.45;;;;;;;4.05;100.00;100531.88;5012647;28;20046;-41
2022/12/27 06:17:06;;;;;;;1.83;1.30;;;;;;;4.08;100.00;100542.19;5012060;28;20069;-41
2022/12/27 06:19:33;;;;;;;2.65;1.00;;;;;;;4.12;100.00;100526.78;5012077;28;20054;-41
2022/12/27 06:22:00;;;;;;;4.53;1.45;;;;;;;4.16;100.00;100528.59;5011746;28;20046;-41
2022/12/27 06:24:27;;;;;;;4.25;1.90;;;;;;;4.21;100.00;100519.44;5011308;28;20073;-41
2022/12/27 06:26:53;;;;;;;2.35;1.10;;;;;;;4.22;100.00;100513.66;5011231;28;20049;-40
2022/12/27 06:29:20;;;;;;;1.83;1.05;;;;;;;4.23;100.00;100498.84;5011898;28;20042;-41
2022/12/27 06:31:46;;;;;;;4.10;1.05;;;;;;;4.25;100.00;100493.88;5008941;28;20091;-41
2022/12/27 06:34:13;;;;;;;2.40;0.93;;;;;;;4.29;100.00;100486.63;5012649;28;20045;-41
2022/12/27 06:36:40;;;;;;;4.07;0.93;;;;;;;4.30;100.00;100477.31;5012672;28;20104;-41
2022/12/27 06:39:07;;;;;;;5.20;1.73;;;;;;;4.32;100.00;100471.50;5012341;28;20046;-41
2022/12/27 06:41:33;;;;;;;5.20;1.17;;;;;;;4.36;100.00;100482.66;4996357;28;20046;-41
2022/12/27 06:44:00;;;;;;;5.35;1.27;;;;;;;4.39;100.00;100460.13;4992680;28;20129;-41
2022/12/27 06:46:27;;;;;;;2.65;1.10;;;;;;;4.41;100.00;100455.13;4994103;28;20042;-42
2022/12/27 06:48:53;;;;;;;7.45;3.92;;;;;;;4.45;100.00;100453.41;4993067;28;20062;-41
2022/12/27 06:51:20;;;;;;;3.63;1.63;;;;;;;4.47;100.00;100434.72;4992955;28;20053;-41
2022/12/27 06:53:48;;;;;;;5.18;1.05;;;;;;;4.46;100.00;100416.63;4990906;28;20046;-41
2022/12/27 06:56:21;;;;;;;11.80;4.40;;;;;;;4.50;100.00;100409.41;4991935;28;20555;-41
2022/12/27 06:58:49;;;;;;;9.18;3.40;;;;;;;4.52;100.00;100408.00;4992751;28;20408;-41
2022/12/27 07:01:26;;;;;;;6.50;1.80;;;;;;;4.56;100.00;100402.66;5004626;28;20045;-41
2022/12/27 07:04:00;;;;;;;2.08;1.30;;;;;;;4.59;100.00;100399.31;4992064;28;20053;-41
2022/12/27 07:06:29;;;;;;;3.35;1.20;;;;;;;4.60;100.00;100395.44;4996032;28;20061;-41
2022/12/27 07:08:57;;;;;;;2.08;0.70;;;;;;;4.64;100.00;100390.94;5012959;28;20073;-41
2022/12/27 07:11:24;;;;;;;1.95;1.02;;;;;;;4.67;100.00;100374.69;5012096;28;20042;-41
2022/12/27 07:13:54;;;;;;;4.28;1.42;;;;;;;4.70;100.00;100384.22;5009445;28;20444;-41
2022/12/27 07:16:23;;;;;;;4.05;1.52;;;;;;;4.74;100.00;100387.91;4991834;28;20127;-41
2022/12/27 07:18:51;;;;;;;3.10;1.00;;;;;;;4.76;100.00;100380.22;4990829;28;20097;-41
2022/12/27 07:21:20;;;;;;;1.23;0.77;;;;;;;4.84;100.00;100376.69;4992993;28;20049;-41
2022/12/27 07:23:48;;;;;;;3.58;0.80;;;;;;;4.94;100.00;100351.72;4991672;28;20133;-41
2022/12/27 07:26:18;;;;;;;2.20;0.60;;;;;;;5.04;100.00;100358.84;4990325;28;20523;-41
2022/12/27 07:28:45;;;;;;;2.63;0.65;;;;;;;5.06;100.00;100354.66;4991580;28;20050;-40
2022/12/27 07:31:15;;;;;;;4.03;0.88;;;;;;;5.12;100.00;100334.19;4997554;28;20046;-41
2022/12/27 07:33:42;;;;;;;6.68;0.90;;;;;;;5.25;100.00;100333.25;4991094;28;20038;-40
2022/12/27 07:36:16;;;;;;;3.17;0.60;;;;;;;5.44;100.00;100331.03;4993133;28;20038;-40
2022/12/27 07:38:43;;;;;;;3.05;0.70;;;;;;;5.54;100.00;100317.00;4992815;28;20057;-40
2022/12/27 07:41:11;;;;;;;9.90;0.88;;;;;;;5.66;100.00;100310.06;4992368;28;20061;-41
2022/12/27 07:43:38;;;;;;;5.05;0.70;;;;;;;5.74;100.00;100310.06;4991258;28;20070;-41
2022/12/27 07:46:09;;;;;;;2.28;0.50;;;;;;;5.86;100.00;100312.97;4974827;28;20516;-41
2022/12/27 07:48:36;;;;;;;3.95;0.75;;;;;;;5.96;100.00;100307.16;4990267;28;20109;-40
2022/12/27 07:51:04;;;;;;;5.43;1.63;;;;;;;6.04;100.00;100297.28;4990648;28;20088;-40
2022/12/27 07:53:30;;;;;;;1.33;0.40;;;;;;;6.10;100.00;100296.78;4991323;28;20046;-40
2022/12/27 07:55:57;;;;;;;4.88;0.70;;;;;;;6.11;100.00;100278.38;4990778;28;20053;-43
2022/12/27 07:58:24;;;;;;;1.38;0.50;;;;;;;6.18;100.00;100292.41;5008775;28;20056;-41
2022/12/27 08:01:28;;;;;;;2.65;0.40;;;;;;;6.23;100.00;100278.47;5009399;28;20137;-41
2022/12/27 08:03:55;;;;;;;1.27;0.20;;;;;;;6.29;100.00;100271.69;5034985;28;20107;-41
2022/12/27 08:06:27;;;;;;;3.35;0.40;;;;;;;6.33;100.00;100261.63;5030275;28;20041;-40
2022/12/27 08:08:56;;;;;;;3.10;0.40;;;;;;;6.35;100.00;100259.38;5030274;28;20128;-40
2022/12/27 08:11:25;;;;;;;4.55;0.75;;;;;;;6.36;100.00;100255.47;5030093;28;20075;-41
2022/12/27 08:13:52;;;;;;;0.93;0.40;;;;;;;6.43;100.00;100243.97;5029146;28;20125;-41
2022/12/27 08:16:22;;;;;;;2.75;0.32;;;;;;;6.48;100.00;100235.56;5031396;28;20136;-43
2022/12/27 08:18:52;;;;;;;1.23;0.20;;;;;;;6.53;100.00;100241.69;5032677;28;20405;-41
2022/12/27 08:21:33;;;;;;;1.75;0.45;;;;;;;6.63;100.00;100249.56;5034963;28;20075;-40
2022/12/27 08:24:00;;;;;;;0.30;0.20;;;;;;;6.67;100.00;100244.19;5033115;28;20087;-40
2022/12/27 08:26:27;;;;;;;2.15;0.63;;;;;;;6.71;100.00;100240.44;5033391;28;20053;-41
2022/12/27 08:28:53;;;;;;;1.77;0.25;;;;;;;6.77;100.00;100237.50;5034618;28;20053;-41
2022/12/27 08:31:20;;;;;;;0.65;0.10;;;;;;;6.79;100.00;100236.03;5034787;28;20545;-41
2022/12/27 08:34:26;;;;;;;1.05;0.30;;;;;;;6.86;100.00;100238.28;5034739;28;20052;-41
2022/12/27 08:36:53;;;;;;;0.15;0.15;;;;;;;6.87;100.00;100218.66;5034372;28;20049;-41
2022/12/27 08:39:23;;;;;;;0.77;0.00;;;;;;;6.96;100.00;100235.13;5032962;28;20049;-40
2022/12/27 08:41:52;;;;;;;0.47;0.10;;;;;;;7.00;100.00;100222.31;5034233;28;20137;-41
2022/12/27 08:44:28;;;;;;;0.55;0.10;;;;;;;7.03;100.00;100213.38;5022480;28;20038;-41
2022/12/27 08:46:55;;;;;;;0.22;0.00;;;;;;;7.06;100.00;100209.97;5034815;28;20046;-41
2022/12/27 08:49:21;;;;;;;0.20;0.00;;;;;;;7.09;100.00;100207.38;5033462;28;20122;-41
2022/12/27 08:51:48;;;;;;;0.08;0.08;;;;;;;7.11;100.00;100201.50;5031540;28;20052;-41
2022/12/27 08:54:15;;;;;;;0.20;0.10;;;;;;;7.18;100.00;100190.75;5033115;28;20046;-41
2022/12/27 08:56:42;;;;;;;0.90;0.10;;;;;;;7.21;100.00;100190.09;5032972;28;20041;-40
2022/12/27 08:59:08;;;;;;;0.10;0.10;;;;;;;7.22;100.00;100186.22;5033924;28;20041;-41
2022/12/27 09:01:42;;;;;;;0.85;0.00;;;;;;;7.26;100.00;100179.69;5033527;28;20052;-41
2022/12/27 09:04:09;;;;;;;0.35;0.08;;;;;;;7.29;100.00;100175.44;5017581;28;20078;-41
2022/12/27 09:06:38;;;;;;;0.20;0.00;;;;;;;7.33;100.00;100174.44;5012623;28;20514;-41
2022/12/27 09:09:05;;;;;;;0.00;0.00;;;;;;;7.37;100.00;100171.81;5013708;28;20395;-41
2022/12/27 09:11:33;;;;;;;0.30;0.15;;;;;;;7.37;100.00;100163.56;5013556;28;20045;-41
2022/12/27 09:14:15;;;;;;;0.15;0.00;;;;;;;7.40;100.00;100151.06;5003579;28;20048;-41
2022/12/27 09:19:51;;;;;;;0.30;0.00;;;;;;;7.41;100.00;100147.97;5012947;28;20406;-41
2022/12/27 09:22:18;;;;;;;0.13;0.00;;;;;;;7.44;100.00;100146.50;5013034;28;20100;-41
2022/12/27 09:24:44;;;;;;;0.10;0.10;;;;;;;7.47;100.00;100141.09;5013185;28;20495;-41
2022/12/27 09:27:11;;;;;;;0.00;0.00;;;;;;;7.51;100.00;100133.78;5014381;28;20129;-41
2022/12/27 09:29:38;;;;;;;0.50;0.10;;;;;;;7.56;100.00;100139.06;5011770;28;20045;-41
2022/12/27 09:32:13;;;;;;;0.55;0.32;;;;;;;7.57;100.00;100126.88;4996625;28;20049;-41
2022/12/27 09:34:40;;;;;;;0.70;0.10;;;;;;;7.54;100.00;100113.81;5013329;28;20054;-41
2022/12/27 09:37:07;;;;;;;0.10;0.10;;;;;;;7.55;100.00;100115.41;5012783;28;20062;-40
2022/12/27 09:39:56;;;;;;;1.25;0.13;;;;;;;7.62;100.00;100096.41;5013137;28;20056;-41
2022/12/27 09:42:35;;;;;;;2.40;0.10;;;;;;;7.66;100.00;100104.75;5013022;28;20137;-41
2022/12/27 09:45:34;;;;;;;2.40;0.22;;;;;;;7.64;100.00;100094.09;5013964;28;20038;-41
2022/12/27 09:48:35;;;;;;;1.02;0.10;;;;;;;7.64;100.00;100091.34;4999534;28;20047;-42
2022/12/27 09:51:18;;;;;;;0.20;0.10;;;;;;;7.64;100.00;100074.81;5013607;28;20099;-41
2022/12/27 09:53:52;;;;;;;0.10;0.08;;;;;;;7.67;100.00;100071.38;5013017;28;20092;-41
2022/12/27 09:56:26;;;;;;;0.20;0.10;;;;;;;7.67;100.00;100074.13;5012675;28;20057;-41
2022/12/27 09:59:35;;;;;;;0.60;0.20;;;;;;;7.66;100.00;100069.75;4987029;28;20058;-41
2022/12/27 10:02:19;;;;;;;0.40;0.10;;;;;;;7.70;100.00;100062.44;5012513;28;20041;-40
2022/12/27 10:04:46;;;;;;;0.17;0.00;;;;;;;7.72;100.00;100065.66;5030944;28;20049;-41
2022/12/27 10:08:05;;;;;;;0.00;0.00;;;;;;;7.74;100.00;100065.28;5031279;28;20046;-41
2022/12/27 10:11:02;;;;;;;0.10;0.10;;;;;;;7.78;100.00;100053.22;5019468;28;20100;-41
2022/12/27 10:14:16;;;;;;;0.05;0.00;;;;;;;7.85;100.00;100047.97;4978515;28;20190;-41
2022/12/27 10:17:12;;;;;;;0.28;0.20;;;;;;;7.92;100.00;100039.94;5012208;28;20060;-41
2022/12/27 10:19:55;;;;;;;1.10;0.17;;;;;;;7.93;100.00;100033.28;5031075;28;20041;-41
2022/12/27 10:22:39;;;;;;;0.20;0.10;;;;;;;7.94;100.00;100043.13;5031077;28;20050;-41
2022/12/27 10:25:12;;;;;;;0.25;0.20;;;;;;;7.97;100.00;100022.34;5031227;28;20077;-41
2022/12/27 10:27:40;;;;;;;0.50;0.20;;;;;;;8.02;100.00;100030.41;5030046;28;20041;-41
2022/12/27 10:30:18;;;;;;;0.08;0.00;;;;;;;8.02;100.00;100019.38;5031254;28;20042;-41
2022/12/27 10:32:46;;;;;;;0.35;0.30;;;;;;;8.02;100.00;100018.56;5031939;28;20545;-41
2022/12/27 10:35:15;;;;;;;0.70;0.10;;;;;;;8.03;100.00;99998.13;5031917;28;20443;-41
2022/12/27 10:37:44;;;;;;;0.77;0.10;;;;;;;8.08;100.00;100012.47;5029692;28;20111;-45
2022/12/27 10:40:18;;;;;;;0.75;0.30;;;;;;;8.17;100.00;100009.59;5031330;28;20049;-41
2022/12/27 10:42:57;;;;;;;0.88;0.28;;;;;;;8.21;100.00;100004.97;5029892;28;20049;-41
2022/12/27 10:45:33;;;;;;;0.13;0.13;;;;;;;8.25;100.00;99995.69;5032392;28;20045;-41
2022/12/27 10:48:17;;;;;;;0.30;0.20;;;;;;;8.31;100.00;99997.06;5014193;28;20116;-41
2022/12/27 10:50:57;;;;;;;1.13;0.60;;;;;;;8.38;100.00;99988.22;5031153;28;20140;-41
2022/12/27 10:53:35;;;;;;;1.60;0.17;;;;;;;8.39;100.00;99995.34;5030456;28;20060;-42
2022/12/27 10:56:33;;;;;;;0.20;0.10;;;;;;;8.42;100.00;99972.56;5030662;28;20046;-41
2022/12/27 10:59:16;;;;;;;0.82;0.43;;;;;;;8.48;100.00;99971.16;5028738;28;20169;-45
2022/12/27 11:02:06;;;;;;;2.53;1.00;;;;;;;8.52;100.00;99988.63;5031359;28;20045;-41
2022/12/27 11:04:55;;;;;;;0.15;0.15;;;;;;;8.59;100.00;99972.28;5011122;28;20512;-41
2022/12/27 11:07:31;;;;;;;0.10;0.10;;;;;;;8.64;100.00;99980.31;5001076;28;20053;-41
2022/12/27 11:10:07;;;;;;;0.70;0.20;;;;;;;8.68;100.00;99964.66;5010891;28;20037;-41
2022/12/27 11:12:35;;;;;;;1.30;0.20;;;;;;;8.68;100.00;99964.66;5003257;28;20082;-41
2022/12/27 11:15:19;;;;;;;0.30;0.20;;;;;;;8.71;100.00;99954.88;5010248;28;20483;-42
2022/12/27 11:17:50;;;;;;;0.20;0.10;;;;;;;8.73;100.00;99964.41;5010029;28;20054;-41
2022/12/27 11:20:22;;;;;;;0.50;0.22;;;;;;;8.77;100.00;99954.25;5010597;28;20046;-42
2022/12/27 11:22:58;;;;;;;1.30;0.20;;;;;;;8.81;100.00;99957.13;5010176;28;20046;-42
2022/12/27 11:25:27;;;;;;;0.50;0.30;;;;;;;8.85;100.00;99956.06;5010653;28;20050;-41
2022/12/27 11:28:05;;;;;;;0.38;0.30;;;;;;;8.90;100.00;99933.72;5011365;28;20137;-41
2022/12/27 11:30:39;;;;;;;0.10;0.10;;;;;;;8.95;100.00;99936.22;5010296;28;20472;-42
2022/12/27 11:33:21;;;;;;;0.10;0.10;;;;;;;9.00;100.00;99933.19;5012535;28;20086;-41
2022/12/27 11:35:53;;;;;;;0.43;0.20;;;;;;;9.03;100.00;99931.69;5011243;28;20124;-42
2022/12/27 11:38:27;;;;;;;0.22;0.17;;;;;;;9.04;100.00;99912.03;5010547;28;20045;-41
2022/12/27 11:41:27;;;;;;;0.65;0.20;;;;;;;9.10;100.00;99924.41;5011125;28;20049;-41
2022/12/27 11:44:17;;;;;;;1.83;0.20;;;;;;;9.11;100.00;99909.44;5008557;28;20511;-41
2022/12/27 11:47:06;;;;;;;0.45;0.30;;;;;;;9.14;100.00;99911.50;5010583;28;20041;-42
2022/12/27 11:49:54;;;;;;;0.65;0.20;;;;;;;9.16;100.00;99914.69;5000801;28;20092;-41
2022/12/27 11:53:11;;;;;;;0.70;0.20;;;;;;;9.22;100.00;99908.91;5012338;28;20050;-42
2022/12/27 11:56:02;;;;;;;0.63;0.20;;;;;;;9.24;100.00;99892.78;4996399;28;20570;-42
2022/12/27 11:59:20;;;;;;;1.55;0.88;;;;;;;9.28;100.00;99893.66;5009067;28;20065;-41
2022/12/27 12:02:06;;;;;;;1.55;0.32;;;;;;;9.31;100.00;99890.19;5010161;28;20038;-41
2022/12/27 12:04:48;;;;;;;1.60;0.30;;;;;;;9.30;100.00;99880.28;5008080;28;20108;-45
2022/12/27 12:07:35;;;;;;;0.20;0.10;;;;;;;9.29;100.00;99874.00;5009835;28;20038;-41
2022/12/27 12:10:36;;;;;;;1.60;0.40;;;;;;;9.33;100.00;99874.06;5010028;28;20483;-41
2022/12/27 12:14:05;;;;;;;0.65;0.30;;;;;;;9.36;100.00;99865.06;5010147;28;20038;-41
2022/12/27 12:17:13;;;;;;;0.75;0.30;;;;;;;9.37;100.00;99859.16;4974405;28;20057;-41
2022/12/27 12:20:01;;;;;;;0.43;0.30;;;;;;;9.40;100.00;99843.88;4949146;29;20051;-49
2022/12/27 12:22:47;;;;;;;1.00;0.38;;;;;;;9.43;100.00;99840.34;5003935;28;20050;-41
2022/12/27 12:25:26;;;;;;;1.35;0.38;;;;;;;9.46;100.00;99836.88;5010468;28;20069;-42
2022/12/27 12:28:30;;;;;;;0.50;0.40;;;;;;;9.49;100.00;99825.13;5011073;28;20061;-42
2022/12/27 12:31:29;;;;;;;2.50;0.77;;;;;;;9.51;100.00;99825.53;5009689;28;20058;-42
2022/12/27 12:34:20;;;;;;;0.80;0.60;;;;;;;9.54;100.00;99836.69;5011760;28;20361;-42
2022/12/27 12:37:05;;;;;;;1.10;0.55;;;;;;;9.55;100.00;99821.72;5010225;28;20049;-42
2022/12/27 12:40:13;;;;;;;2.33;0.50;;;;;;;9.56;100.00;99819.75;4999792;28;20045;-41
2022/12/27 12:43:04;;;;;;;1.88;0.60;;;;;;;9.54;100.00;99798.00;5009723;28;20080;-41
2022/12/27 12:45:50;;;;;;;0.75;0.57;;;;;;;9.55;100.00;99793.28;5010234;28;20042;-42
2022/12/27 12:48:40;;;;;;;0.50;0.20;;;;;;;9.56;100.00;99794.88;5009067;28;20078;-42
2022/12/27 12:51:55;;;;;;;0.65;0.40;;;;;;;9.56;100.00;99789.34;5006861;28;20042;-42
2022/12/27 12:54:32;;;;;;;0.52;0.30;;;;;;;9.56;100.00;99786.59;5008859;28;20149;-42
2022/12/27 12:57:13;;;;;;;0.50;0.50;;;;;;;9.57;100.00;99780.72;4997644;28;20063;-43
2022/12/27 12:59:48;;;;;;;1.52;0.22;;;;;;;9.56;100.00;99776.34;5009120;28;20041;-42
2022/12/27 13:02:15;;;;;;;0.68;0.65;;;;;;;9.60;100.00;99787.47;5020053;28;20082;-41
2022/12/27 13:04:42;;;;;;;0.40;0.10;;;;;;;9.59;100.00;99772.03;5009886;28;20038;-42
2022/12/27 13:07:39;;;;;;;0.68;0.38;;;;;;;9.57;100.00;99779.91;5014003;28;20045;-42
2022/12/27 13:10:08;;;;;;;1.08;0.47;;;;;;;9.55;100.00;99772.00;5012900;28;20042;-41
2022/12/27 13:12:49;;;;;;;0.40;0.40;;;;;;;9.54;100.00;99764.03;5011935;28;20057;-41
2022/12/27 13:19:47;;;;;;;0.65;0.40;;;;;;;9.53;100.00;99709.97;5007577;28;20487;-42
2022/12/27 13:22:32;;;;;;;0.30;0.30;;;;;;;9.53;100.00;99712.72;5013367;28;20085;-42
2022/12/27 13:25:44;;;;;;;1.88;0.95;;;;;;;9.53;100.00;99709.97;5003022;28;20046;-42
2022/12/27 13:28:25;;;;;;;1.23;0.70;;;;;;;9.51;100.00;99688.22;5013093;28;20041;-41
2022/12/27 13:30:54;;;;;;;0.75;0.45;;;;;;;9.49;100.00;99676.72;5012362;28;20052;-42
2022/12/27 13:33:46;;;;;;;1.17;0.50;;;;;;;9.51;100.00;99690.16;5012665;28;20104;-41
2022/12/27 13:36:46;;;;;;;0.55;0.45;;;;;;;9.52;100.00;99683.47;5012418;28;20045;-41
2022/12/27 13:39:19;;;;;;;0.65;0.52;;;;;;;9.54;100.00;99678.38;5011893;28;20457;-41
2022/12/27 13:41:58;;;;;;;0.50;0.40;;;;;;;9.57;100.00;99678.47;5012095;28;20046;-42
2022/12/27 13:44:35;;;;;;;0.60;0.57;;;;;;;9.61;100.00;99681.31;5012446;28;20500;-42
2022/12/27 13:47:14;;;;;;;0.98;0.80;;;;;;;9.63;100.00;99681.75;5011625;28;20137;-42
2022/12/27 13:49:52;;;;;;;0.55;0.50;;;;;;;9.66;100.00;99683.78;5013529;28;20048;-42
2022/12/27 13:52:38;;;;;;;;;;;;;;;9.63;100.00;99695.56;5013715;28;20038;-41
2022/12/27 13:55:26;;;;;;;1.75;0.40;;;;;;;9.63;100.00;99687.28;5012627;28;20310;-41
2022/12/27 13:58:22;;;;;;;0.82;0.60;;;;;;;9.64;100.00;99691.63;5012343;28;20057;-42
2022/12/27 14:01:04;;;;;;;0.40;0.40;;;;;;;9.64;100.00;99691.63;5001929;28;20056;-42
2022/12/27 14:03:42;;;;;;;0.77;0.60;;;;;;;9.67;100.00;99691.69;5009588;28;20392;-43
2022/12/27 14:06:37;;;;;;;0.70;0.40;;;;;;;9.72;100.00;99688.63;5012979;28;20096;-41